sensor_id;sensor_type;location;lat;lon;timestamp;P1;durP1;ratioP1;P2;durP2;ratioP2
2720;SDS011;1368;49.484;11.112;2024-01-06T00:01:22;14.73;;;10.07;;
2720;SDS011;1368;49.484;11.112;2024-01-06T00:03:48;19.50;;;12.67;;
2720;SDS011;1368;49.484;11.112;2024-01-06T00:06:13;18.60;;;11.80;;
2720;SDS011;1368;49.484;11.112;2024-01-06T00:08:39;18.43;;;13.13;;
2720;SDS011;1368;49.484;11.112;2024-01-06T00:11:04;15.57;;;11.17;;
2720;SDS011;1368;49.484;11.112;2024-01-06T00:13:30;18.97;;;12.20;;
2720;SDS011;1368;49.484;11.112;2024-01-06T00:15:55;18.73;;;11.13;;
2720;SDS011;1368;49.484;11.112;2024-01-06T00:18:21;16.90;;;11.40;;
2720;SDS011;1368;49.484;11.112;2024-01-06T00:20:47;19.23;;;11.73;;
2720;SDS011;1368;49.484;11.112;2024-01-06T00:23:13;17.50;;;12.00;;
2720;SDS011;1368;49.484;11.112;2024-01-06T00:25:38;23.30;;;12.80;;
2720;SDS011;1368;49.484;11.112;2024-01-06T00:28:04;20.27;;;12.57;;
2720;SDS011;1368;49.484;11.112;2024-01-06T00:30:30;16.43;;;11.47;;
2720;SDS011;1368;49.484;11.112;2024-01-06T00:32:55;15.53;;;11.57;;
2720;SDS011;1368;49.484;11.112;2024-01-06T00:35:21;17.40;;;11.27;;
2720;SDS011;1368;49.484;11.112;2024-01-06T00:37:46;18.97;;;11.93;;
2720;SDS011;1368;49.484;11.112;2024-01-06T00:40:12;23.43;;;13.57;;
2720;SDS011;1368;49.484;11.112;2024-01-06T00:42:38;19.70;;;13.27;;
2720;SDS011;1368;49.484;11.112;2024-01-06T00:45:03;19.23;;;12.93;;
2720;SDS011;1368;49.484;11.112;2024-01-06T00:47:30;18.50;;;14.80;;
2720;SDS011;1368;49.484;11.112;2024-01-06T00:49:56;22.03;;;14.10;;
2720;SDS011;1368;49.484;11.112;2024-01-06T00:52:21;23.23;;;15.30;;
2720;SDS011;1368;49.484;11.112;2024-01-06T00:54:47;21.10;;;15.30;;
2720;SDS011;1368;49.484;11.112;2024-01-06T00:57:13;25.20;;;15.10;;
2720;SDS011;1368;49.484;11.112;2024-01-06T00:59:38;21.50;;;14.23;;
2720;SDS011;1368;49.484;11.112;2024-01-06T01:02:04;20.07;;;14.20;;
2720;SDS011;1368;49.484;11.112;2024-01-06T01:04:29;23.90;;;14.63;;
2720;SDS011;1368;49.484;11.112;2024-01-06T01:06:55;25.93;;;16.07;;
2720;SDS011;1368;49.484;11.112;2024-01-06T01:09:20;22.80;;;15.33;;
2720;SDS011;1368;49.484;11.112;2024-01-06T01:11:46;16.87;;;12.03;;
2720;SDS011;1368;49.484;11.112;2024-01-06T01:14:11;17.13;;;10.13;;
2720;SDS011;1368;49.484;11.112;2024-01-06T01:16:37;17.10;;;10.20;;
2720;SDS011;1368;49.484;11.112;2024-01-06T01:19:02;17.07;;;10.60;;
2720;SDS011;1368;49.484;11.112;2024-01-06T01:21:28;16.93;;;10.53;;
2720;SDS011;1368;49.484;11.112;2024-01-06T01:23:54;15.33;;;10.87;;
2720;SDS011;1368;49.484;11.112;2024-01-06T01:26:19;24.27;;;12.80;;
2720;SDS011;1368;49.484;11.112;2024-01-06T01:28:45;17.10;;;11.33;;
2720;SDS011;1368;49.484;11.112;2024-01-06T01:31:10;15.93;;;10.47;;
2720;SDS011;1368;49.484;11.112;2024-01-06T01:33:37;16.90;;;10.57;;
2720;SDS011;1368;49.484;11.112;2024-01-06T01:36:03;18.93;;;13.87;;
2720;SDS011;1368;49.484;11.112;2024-01-06T01:38:28;16.50;;;11.57;;
2720;SDS011;1368;49.484;11.112;2024-01-06T01:40:54;16.17;;;11.00;;
2720;SDS011;1368;49.484;11.112;2024-01-06T01:43:19;15.47;;;10.50;;
2720;SDS011;1368;49.484;11.112;2024-01-06T01:45:48;18.60;;;11.93;;
2720;SDS011;1368;49.484;11.112;2024-01-06T01:48:18;19.93;;;11.00;;
2720;SDS011;1368;49.484;11.112;2024-01-06T01:50:48;15.00;;;9.83;;
2720;SDS011;1368;49.484;11.112;2024-01-06T01:53:14;15.07;;;10.43;;
2720;SDS011;1368;49.484;11.112;2024-01-06T01:55:42;17.40;;;11.60;;
2720;SDS011;1368;49.484;11.112;2024-01-06T01:58:10;19.80;;;11.33;;
2720;SDS011;1368;49.484;11.112;2024-01-06T02:00:38;16.03;;;10.40;;
2720;SDS011;1368;49.484;11.112;2024-01-06T02:03:04;15.43;;;10.47;;
2720;SDS011;1368;49.484;11.112;2024-01-06T02:05:30;15.23;;;11.30;;
2720;SDS011;1368;49.484;11.112;2024-01-06T02:07:56;17.10;;;10.60;;
2720;SDS011;1368;49.484;11.112;2024-01-06T02:10:21;17.83;;;11.33;;
2720;SDS011;1368;49.484;11.112;2024-01-06T02:12:47;16.97;;;10.97;;
2720;SDS011;1368;49.484;11.112;2024-01-06T02:15:13;18.00;;;11.23;;
2720;SDS011;1368;49.484;11.112;2024-01-06T02:17:39;12.83;;;9.83;;
2720;SDS011;1368;49.484;11.112;2024-01-06T02:20:05;17.77;;;9.70;;
2720;SDS011;1368;49.484;11.112;2024-01-06T02:22:32;17.73;;;11.90;;
2720;SDS011;1368;49.484;11.112;2024-01-06T02:25:00;18.53;;;13.93;;
2720;SDS011;1368;49.484;11.112;2024-01-06T02:27:26;20.60;;;13.37;;
2720;SDS011;1368;49.484;11.112;2024-01-06T02:29:51;19.20;;;11.20;;
2720;SDS011;1368;49.484;11.112;2024-01-06T02:32:17;16.13;;;11.30;;
2720;SDS011;1368;49.484;11.112;2024-01-06T02:34:42;12.60;;;9.57;;
2720;SDS011;1368;49.484;11.112;2024-01-06T02:37:08;14.87;;;11.60;;
2720;SDS011;1368;49.484;11.112;2024-01-06T02:39:33;17.03;;;11.80;;
2720;SDS011;1368;49.484;11.112;2024-01-06T02:41:59;14.13;;;10.13;;
2720;SDS011;1368;49.484;11.112;2024-01-06T02:44:24;18.37;;;10.97;;
2720;SDS011;1368;49.484;11.112;2024-01-06T02:46:50;16.63;;;10.43;;
2720;SDS011;1368;49.484;11.112;2024-01-06T02:49:15;18.70;;;11.60;;
2720;SDS011;1368;49.484;11.112;2024-01-06T02:51:41;12.77;;;10.37;;
2720;SDS011;1368;49.484;11.112;2024-01-06T02:54:07;16.80;;;10.80;;
2720;SDS011;1368;49.484;11.112;2024-01-06T02:56:32;25.20;;;10.00;;
2720;SDS011;1368;49.484;11.112;2024-01-06T02:58:57;15.80;;;10.47;;
2720;SDS011;1368;49.484;11.112;2024-01-06T03:01:23;17.00;;;12.03;;
2720;SDS011;1368;49.484;11.112;2024-01-06T03:03:48;21.43;;;11.70;;
2720;SDS011;1368;49.484;11.112;2024-01-06T03:06:14;15.77;;;13.60;;
2720;SDS011;1368;49.484;11.112;2024-01-06T03:08:39;14.43;;;10.10;;
2720;SDS011;1368;49.484;11.112;2024-01-06T03:11:05;15.30;;;10.57;;
2720;SDS011;1368;49.484;11.112;2024-01-06T03:13:31;21.47;;;13.23;;
2720;SDS011;1368;49.484;11.112;2024-01-06T03:15:56;20.90;;;12.97;;
2720;SDS011;1368;49.484;11.112;2024-01-06T03:18:22;20.00;;;11.80;;
2720;SDS011;1368;49.484;11.112;2024-01-06T03:20:47;17.03;;;10.10;;
2720;SDS011;1368;49.484;11.112;2024-01-06T03:23:13;15.03;;;10.90;;
2720;SDS011;1368;49.484;11.112;2024-01-06T03:25:38;16.50;;;10.53;;
2720;SDS011;1368;49.484;11.112;2024-01-06T03:28:04;20.37;;;12.03;;
2720;SDS011;1368;49.484;11.112;2024-01-06T03:30:29;17.53;;;11.13;;
2720;SDS011;1368;49.484;11.112;2024-01-06T03:32:55;15.97;;;11.20;;
2720;SDS011;1368;49.484;11.112;2024-01-06T03:35:21;14.67;;;11.20;;
2720;SDS011;1368;49.484;11.112;2024-01-06T03:37:46;12.20;;;10.00;;
2720;SDS011;1368;49.484;11.112;2024-01-06T03:40:12;16.90;;;11.30;;
2720;SDS011;1368;49.484;11.112;2024-01-06T03:42:38;15.03;;;10.57;;
2720;SDS011;1368;49.484;11.112;2024-01-06T03:45:03;18.87;;;10.47;;
2720;SDS011;1368;49.484;11.112;2024-01-06T03:47:29;16.77;;;10.20;;
2720;SDS011;1368;49.484;11.112;2024-01-06T03:49:54;20.60;;;11.10;;
2720;SDS011;1368;49.484;11.112;2024-01-06T03:52:20;12.97;;;9.67;;
2720;SDS011;1368;49.484;11.112;2024-01-06T03:54:45;14.67;;;10.10;;
2720;SDS011;1368;49.484;11.112;2024-01-06T03:57:11;19.77;;;11.87;;
2720;SDS011;1368;49.484;11.112;2024-01-06T03:59:36;16.30;;;11.40;;
2720;SDS011;1368;49.484;11.112;2024-01-06T04:02:02;13.13;;;10.73;;
2720;SDS011;1368;49.484;11.112;2024-01-06T04:04:28;27.70;;;12.27;;
2720;SDS011;1368;49.484;11.112;2024-01-06T04:06:53;19.63;;;11.27;;
2720;SDS011;1368;49.484;11.112;2024-01-06T04:09:19;15.07;;;10.80;;
2720;SDS011;1368;49.484;11.112;2024-01-06T04:11:44;19.80;;;11.73;;
2720;SDS011;1368;49.484;11.112;2024-01-06T04:14:10;15.57;;;10.50;;
2720;SDS011;1368;49.484;11.112;2024-01-06T04:16:35;17.93;;;11.23;;
2720;SDS011;1368;49.484;11.112;2024-01-06T04:19:01;14.30;;;10.47;;
2720;SDS011;1368;49.484;11.112;2024-01-06T04:21:26;25.23;;;12.30;;
2720;SDS011;1368;49.484;11.112;2024-01-06T04:23:52;18.53;;;11.67;;
2720;SDS011;1368;49.484;11.112;2024-01-06T04:26:17;14.47;;;10.30;;
2720;SDS011;1368;49.484;11.112;2024-01-06T04:28:43;20.43;;;11.77;;
2720;SDS011;1368;49.484;11.112;2024-01-06T04:31:08;15.40;;;10.40;;
2720;SDS011;1368;49.484;11.112;2024-01-06T04:33:34;15.87;;;12.00;;
2720;SDS011;1368;49.484;11.112;2024-01-06T04:36:01;16.77;;;11.80;;
2720;SDS011;1368;49.484;11.112;2024-01-06T04:38:27;17.87;;;12.00;;
2720;SDS011;1368;49.484;11.112;2024-01-06T04:40:52;18.60;;;11.50;;
2720;SDS011;1368;49.484;11.112;2024-01-06T04:43:18;15.70;;;11.33;;
2720;SDS011;1368;49.484;11.112;2024-01-06T04:45:43;15.60;;;11.20;;
2720;SDS011;1368;49.484;11.112;2024-01-06T04:48:09;18.60;;;12.03;;
2720;SDS011;1368;49.484;11.112;2024-01-06T04:50:34;19.97;;;11.93;;
2720;SDS011;1368;49.484;11.112;2024-01-06T04:53:00;18.30;;;13.43;;
2720;SDS011;1368;49.484;11.112;2024-01-06T04:55:25;16.23;;;11.30;;
2720;SDS011;1368;49.484;11.112;2024-01-06T04:57:51;21.10;;;12.60;;
2720;SDS011;1368;49.484;11.112;2024-01-06T05:00:17;19.23;;;11.77;;
2720;SDS011;1368;49.484;11.112;2024-01-06T05:02:42;17.70;;;10.83;;
2720;SDS011;1368;49.484;11.112;2024-01-06T05:05:08;14.20;;;11.50;;
2720;SDS011;1368;49.484;11.112;2024-01-06T05:07:34;18.97;;;13.00;;
2720;SDS011;1368;49.484;11.112;2024-01-06T05:09:59;16.20;;;10.97;;
2720;SDS011;1368;49.484;11.112;2024-01-06T05:12:25;20.40;;;12.97;;
2720;SDS011;1368;49.484;11.112;2024-01-06T05:14:50;14.90;;;12.07;;
2720;SDS011;1368;49.484;11.112;2024-01-06T05:17:16;17.83;;;12.27;;
2720;SDS011;1368;49.484;11.112;2024-01-06T05:19:42;18.63;;;11.80;;
2720;SDS011;1368;49.484;11.112;2024-01-06T05:22:07;19.13;;;12.67;;
2720;SDS011;1368;49.484;11.112;2024-01-06T05:24:33;20.97;;;13.90;;
2720;SDS011;1368;49.484;11.112;2024-01-06T05:26:58;15.97;;;11.93;;
2720;SDS011;1368;49.484;11.112;2024-01-06T05:29:24;16.40;;;12.20;;
2720;SDS011;1368;49.484;11.112;2024-01-06T05:31:51;19.80;;;13.43;;
2720;SDS011;1368;49.484;11.112;2024-01-06T05:34:16;18.40;;;12.57;;
2720;SDS011;1368;49.484;11.112;2024-01-06T05:36:42;18.07;;;12.10;;
2720;SDS011;1368;49.484;11.112;2024-01-06T05:39:07;21.03;;;13.70;;
2720;SDS011;1368;49.484;11.112;2024-01-06T05:41:39;21.40;;;16.00;;
2720;SDS011;1368;49.484;11.112;2024-01-06T05:44:05;26.50;;;15.33;;
2720;SDS011;1368;49.484;11.112;2024-01-06T05:46:31;23.50;;;16.17;;
2720;SDS011;1368;49.484;11.112;2024-01-06T05:48:57;20.53;;;15.53;;
2720;SDS011;1368;49.484;11.112;2024-01-06T05:51:22;23.60;;;15.47;;
2720;SDS011;1368;49.484;11.112;2024-01-06T05:53:48;22.20;;;14.90;;
2720;SDS011;1368;49.484;11.112;2024-01-06T05:56:32;25.80;;;14.30;;
2720;SDS011;1368;49.484;11.112;2024-01-06T05:58:57;23.70;;;15.80;;
2720;SDS011;1368;49.484;11.112;2024-01-06T06:01:23;19.90;;;14.70;;
2720;SDS011;1368;49.484;11.112;2024-01-06T06:03:48;20.30;;;16.00;;
2720;SDS011;1368;49.484;11.112;2024-01-06T06:06:15;21.57;;;14.60;;
2720;SDS011;1368;49.484;11.112;2024-01-06T06:08:41;23.10;;;13.83;;
2720;SDS011;1368;49.484;11.112;2024-01-06T06:11:07;19.47;;;14.40;;
2720;SDS011;1368;49.484;11.112;2024-01-06T06:13:40;19.33;;;14.70;;
2720;SDS011;1368;49.484;11.112;2024-01-06T06:16:06;22.03;;;14.30;;
2720;SDS011;1368;49.484;11.112;2024-01-06T06:18:32;21.40;;;14.00;;
2720;SDS011;1368;49.484;11.112;2024-01-06T06:20:58;20.80;;;13.57;;
2720;SDS011;1368;49.484;11.112;2024-01-06T06:23:24;21.80;;;15.50;;
2720;SDS011;1368;49.484;11.112;2024-01-06T06:25:51;20.27;;;13.90;;
2720;SDS011;1368;49.484;11.112;2024-01-06T06:28:16;21.40;;;15.27;;
2720;SDS011;1368;49.484;11.112;2024-01-06T06:30:42;19.57;;;13.60;;
2720;SDS011;1368;49.484;11.112;2024-01-06T06:33:08;17.47;;;12.80;;
2720;SDS011;1368;49.484;11.112;2024-01-06T06:35:33;18.97;;;13.33;;
2720;SDS011;1368;49.484;11.112;2024-01-06T06:37:59;24.90;;;16.23;;
2720;SDS011;1368;49.484;11.112;2024-01-06T06:40:24;22.63;;;14.17;;
2720;SDS011;1368;49.484;11.112;2024-01-06T06:42:50;23.63;;;17.00;;
2720;SDS011;1368;49.484;11.112;2024-01-06T06:45:15;19.53;;;15.13;;
2720;SDS011;1368;49.484;11.112;2024-01-06T06:47:41;22.13;;;14.57;;
2720;SDS011;1368;49.484;11.112;2024-01-06T06:50:06;23.03;;;16.03;;
2720;SDS011;1368;49.484;11.112;2024-01-06T06:52:32;20.97;;;13.00;;
2720;SDS011;1368;49.484;11.112;2024-01-06T06:54:58;23.60;;;14.87;;
2720;SDS011;1368;49.484;11.112;2024-01-06T06:57:23;24.87;;;16.43;;
2720;SDS011;1368;49.484;11.112;2024-01-06T06:59:49;23.13;;;14.73;;
2720;SDS011;1368;49.484;11.112;2024-01-06T07:02:14;23.80;;;15.30;;
2720;SDS011;1368;49.484;11.112;2024-01-06T07:04:40;22.50;;;16.00;;
2720;SDS011;1368;49.484;11.112;2024-01-06T07:07:06;25.63;;;15.63;;
2720;SDS011;1368;49.484;11.112;2024-01-06T07:09:31;27.83;;;20.17;;
2720;SDS011;1368;49.484;11.112;2024-01-06T07:11:57;26.30;;;17.50;;
2720;SDS011;1368;49.484;11.112;2024-01-06T07:14:22;19.87;;;14.50;;
2720;SDS011;1368;49.484;11.112;2024-01-06T07:16:48;20.43;;;15.47;;
2720;SDS011;1368;49.484;11.112;2024-01-06T07:19:13;24.67;;;15.83;;
2720;SDS011;1368;49.484;11.112;2024-01-06T07:21:39;24.23;;;16.10;;
2720;SDS011;1368;49.484;11.112;2024-01-06T07:24:05;28.20;;;15.73;;
2720;SDS011;1368;49.484;11.112;2024-01-06T07:26:30;21.80;;;16.90;;
2720;SDS011;1368;49.484;11.112;2024-01-06T07:28:56;21.60;;;15.70;;
2720;SDS011;1368;49.484;11.112;2024-01-06T07:31:21;22.13;;;14.80;;
2720;SDS011;1368;49.484;11.112;2024-01-06T07:33:47;19.00;;;14.57;;
2720;SDS011;1368;49.484;11.112;2024-01-06T07:36:12;19.90;;;13.60;;
2720;SDS011;1368;49.484;11.112;2024-01-06T07:38:38;23.60;;;16.27;;
2720;SDS011;1368;49.484;11.112;2024-01-06T07:41:03;37.77;;;22.60;;
2720;SDS011;1368;49.484;11.112;2024-01-06T07:43:32;30.37;;;23.90;;
2720;SDS011;1368;49.484;11.112;2024-01-06T07:45:57;38.50;;;25.17;;
2720;SDS011;1368;49.484;11.112;2024-01-06T07:48:24;36.40;;;24.93;;
2720;SDS011;1368;49.484;11.112;2024-01-06T07:50:49;41.80;;;28.50;;
2720;SDS011;1368;49.484;11.112;2024-01-06T07:53:15;40.07;;;30.43;;
2720;SDS011;1368;49.484;11.112;2024-01-06T07:55:41;37.23;;;26.80;;
2720;SDS011;1368;49.484;11.112;2024-01-06T07:58:06;24.77;;;18.93;;
2720;SDS011;1368;49.484;11.112;2024-01-06T08:00:32;21.27;;;15.03;;
2720;SDS011;1368;49.484;11.112;2024-01-06T08:02:57;22.60;;;17.17;;
2720;SDS011;1368;49.484;11.112;2024-01-06T08:05:23;21.37;;;15.53;;
2720;SDS011;1368;49.484;11.112;2024-01-06T08:07:49;22.53;;;14.33;;
2720;SDS011;1368;49.484;11.112;2024-01-06T08:10:16;18.90;;;13.60;;
2720;SDS011;1368;49.484;11.112;2024-01-06T08:12:41;23.47;;;15.00;;
2720;SDS011;1368;49.484;11.112;2024-01-06T08:15:07;23.53;;;15.27;;
2720;SDS011;1368;49.484;11.112;2024-01-06T08:17:34;27.67;;;18.43;;
2720;SDS011;1368;49.484;11.112;2024-01-06T08:20:00;26.33;;;16.70;;
2720;SDS011;1368;49.484;11.112;2024-01-06T08:22:26;21.87;;;16.87;;
2720;SDS011;1368;49.484;11.112;2024-01-06T08:24:52;26.90;;;17.10;;
2720;SDS011;1368;49.484;11.112;2024-01-06T08:27:17;29.20;;;19.30;;
2720;SDS011;1368;49.484;11.112;2024-01-06T08:29:43;30.20;;;18.57;;
2720;SDS011;1368;49.484;11.112;2024-01-06T08:32:08;29.07;;;18.60;;
2720;SDS011;1368;49.484;11.112;2024-01-06T08:34:35;24.50;;;17.47;;
2720;SDS011;1368;49.484;11.112;2024-01-06T08:37:00;23.63;;;19.47;;
2720;SDS011;1368;49.484;11.112;2024-01-06T08:39:26;27.67;;;21.30;;
2720;SDS011;1368;49.484;11.112;2024-01-06T08:41:51;32.00;;;23.57;;
2720;SDS011;1368;49.484;11.112;2024-01-06T08:44:17;36.97;;;23.57;;
2720;SDS011;1368;49.484;11.112;2024-01-06T08:46:42;33.87;;;23.60;;
2720;SDS011;1368;49.484;11.112;2024-01-06T08:49:08;30.30;;;22.70;;
2720;SDS011;1368;49.484;11.112;2024-01-06T08:51:33;28.23;;;19.93;;
2720;SDS011;1368;49.484;11.112;2024-01-06T08:54:00;28.77;;;17.00;;
2720;SDS011;1368;49.484;11.112;2024-01-06T08:56:28;25.10;;;17.67;;
2720;SDS011;1368;49.484;11.112;2024-01-06T08:58:54;28.10;;;19.40;;
2720;SDS011;1368;49.484;11.112;2024-01-06T09:01:19;23.70;;;17.00;;
2720;SDS011;1368;49.484;11.112;2024-01-06T09:03:45;19.27;;;13.80;;
2720;SDS011;1368;49.484;11.112;2024-01-06T09:06:11;24.47;;;15.03;;
2720;SDS011;1368;49.484;11.112;2024-01-06T09:08:37;22.33;;;16.60;;
2720;SDS011;1368;49.484;11.112;2024-01-06T09:11:02;25.40;;;18.00;;
2720;SDS011;1368;49.484;11.112;2024-01-06T09:13:28;43.00;;;33.67;;
2720;SDS011;1368;49.484;11.112;2024-01-06T09:15:53;34.97;;;27.10;;
2720;SDS011;1368;49.484;11.112;2024-01-06T09:18:19;27.50;;;19.27;;
2720;SDS011;1368;49.484;11.112;2024-01-06T09:20:45;23.60;;;17.43;;
2720;SDS011;1368;49.484;11.112;2024-01-06T09:23:13;24.20;;;18.60;;
2720;SDS011;1368;49.484;11.112;2024-01-06T09:25:39;24.63;;;19.17;;
2720;SDS011;1368;49.484;11.112;2024-01-06T09:28:07;24.73;;;19.57;;
2720;SDS011;1368;49.484;11.112;2024-01-06T09:30:33;25.70;;;20.43;;
2720;SDS011;1368;49.484;11.112;2024-01-06T09:32:59;26.40;;;18.90;;
2720;SDS011;1368;49.484;11.112;2024-01-06T09:35:24;22.93;;;15.90;;
2720;SDS011;1368;49.484;11.112;2024-01-06T09:37:50;20.47;;;14.40;;
2720;SDS011;1368;49.484;11.112;2024-01-06T09:40:20;19.30;;;14.00;;
2720;SDS011;1368;49.484;11.112;2024-01-06T09:42:49;19.90;;;14.07;;
2720;SDS011;1368;49.484;11.112;2024-01-06T09:45:15;19.90;;;15.23;;
2720;SDS011;1368;49.484;11.112;2024-01-06T09:47:41;19.57;;;14.57;;
2720;SDS011;1368;49.484;11.112;2024-01-06T09:50:08;16.93;;;13.53;;
2720;SDS011;1368;49.484;11.112;2024-01-06T09:52:37;22.50;;;13.80;;
2720;SDS011;1368;49.484;11.112;2024-01-06T09:55:11;23.37;;;14.80;;
2720;SDS011;1368;49.484;11.112;2024-01-06T09:57:37;20.97;;;14.47;;
2720;SDS011;1368;49.484;11.112;2024-01-06T10:00:03;20.63;;;14.00;;
2720;SDS011;1368;49.484;11.112;2024-01-06T10:02:29;19.83;;;14.87;;
2720;SDS011;1368;49.484;11.112;2024-01-06T10:04:56;16.80;;;14.07;;
2720;SDS011;1368;49.484;11.112;2024-01-06T10:07:23;23.20;;;15.33;;
2720;SDS011;1368;49.484;11.112;2024-01-06T10:09:51;20.87;;;15.63;;
2720;SDS011;1368;49.484;11.112;2024-01-06T10:12:23;23.93;;;14.90;;
2720;SDS011;1368;49.484;11.112;2024-01-06T10:14:50;22.70;;;15.70;;
2720;SDS011;1368;49.484;11.112;2024-01-06T10:17:15;20.23;;;15.37;;
2720;SDS011;1368;49.484;11.112;2024-01-06T10:19:41;19.37;;;14.20;;
2720;SDS011;1368;49.484;11.112;2024-01-06T10:22:17;19.87;;;14.13;;
2720;SDS011;1368;49.484;11.112;2024-01-06T10:24:43;20.67;;;13.77;;
2720;SDS011;1368;49.484;11.112;2024-01-06T10:27:09;18.37;;;13.30;;
2720;SDS011;1368;49.484;11.112;2024-01-06T10:29:35;20.77;;;14.13;;
2720;SDS011;1368;49.484;11.112;2024-01-06T10:32:00;22.83;;;13.10;;
2720;SDS011;1368;49.484;11.112;2024-01-06T10:34:26;16.67;;;13.77;;
2720;SDS011;1368;49.484;11.112;2024-01-06T10:36:54;28.60;;;15.77;;
2720;SDS011;1368;49.484;11.112;2024-01-06T10:39:20;22.83;;;15.70;;
2720;SDS011;1368;49.484;11.112;2024-01-06T10:41:48;29.70;;;18.10;;
2720;SDS011;1368;49.484;11.112;2024-01-06T10:44:14;19.23;;;15.10;;
2720;SDS011;1368;49.484;11.112;2024-01-06T10:46:41;22.80;;;16.73;;
2720;SDS011;1368;49.484;11.112;2024-01-06T10:49:08;24.47;;;16.03;;
2720;SDS011;1368;49.484;11.112;2024-01-06T10:51:36;19.13;;;14.50;;
2720;SDS011;1368;49.484;11.112;2024-01-06T10:54:02;20.03;;;14.97;;
2720;SDS011;1368;49.484;11.112;2024-01-06T10:56:29;23.77;;;15.40;;
2720;SDS011;1368;49.484;11.112;2024-01-06T10:58:55;19.60;;;15.37;;
2720;SDS011;1368;49.484;11.112;2024-01-06T11:01:22;20.30;;;13.83;;
2720;SDS011;1368;49.484;11.112;2024-01-06T11:03:49;21.03;;;13.73;;
2720;SDS011;1368;49.484;11.112;2024-01-06T11:06:16;21.70;;;13.50;;
2720;SDS011;1368;49.484;11.112;2024-01-06T11:08:51;21.10;;;15.20;;
2720;SDS011;1368;49.484;11.112;2024-01-06T11:11:22;17.90;;;13.53;;
2720;SDS011;1368;49.484;11.112;2024-01-06T11:13:48;18.00;;;14.00;;
2720;SDS011;1368;49.484;11.112;2024-01-06T11:16:36;18.27;;;13.60;;
2720;SDS011;1368;49.484;11.112;2024-01-06T11:19:02;19.67;;;12.83;;
2720;SDS011;1368;49.484;11.112;2024-01-06T11:21:47;19.80;;;14.00;;
2720;SDS011;1368;49.484;11.112;2024-01-06T11:24:19;21.17;;;13.90;;
2720;SDS011;1368;49.484;11.112;2024-01-06T11:26:45;20.97;;;13.73;;
2720;SDS011;1368;49.484;11.112;2024-01-06T11:29:15;21.47;;;15.20;;
2720;SDS011;1368;49.484;11.112;2024-01-06T11:31:41;26.80;;;16.40;;
2720;SDS011;1368;49.484;11.112;2024-01-06T11:34:12;20.10;;;14.80;;
2720;SDS011;1368;49.484;11.112;2024-01-06T11:36:40;20.97;;;14.23;;
2720;SDS011;1368;49.484;11.112;2024-01-06T11:39:07;19.17;;;13.23;;
2720;SDS011;1368;49.484;11.112;2024-01-06T11:42:05;14.90;;;11.90;;
2720;SDS011;1368;49.484;11.112;2024-01-06T11:44:34;14.10;;;10.93;;
2720;SDS011;1368;49.484;11.112;2024-01-06T11:47:02;21.40;;;12.30;;
2720;SDS011;1368;49.484;11.112;2024-01-06T11:49:29;15.37;;;10.07;;
2720;SDS011;1368;49.484;11.112;2024-01-06T11:51:58;14.50;;;9.60;;
2720;SDS011;1368;49.484;11.112;2024-01-06T11:54:24;16.33;;;10.87;;
2720;SDS011;1368;49.484;11.112;2024-01-06T11:56:50;13.50;;;9.77;;
2720;SDS011;1368;49.484;11.112;2024-01-06T11:59:19;17.07;;;9.87;;
2720;SDS011;1368;49.484;11.112;2024-01-06T12:01:45;13.17;;;10.30;;
2720;SDS011;1368;49.484;11.112;2024-01-06T12:04:12;16.57;;;12.93;;
2720;SDS011;1368;49.484;11.112;2024-01-06T12:06:40;17.23;;;13.90;;
2720;SDS011;1368;49.484;11.112;2024-01-06T12:09:06;18.40;;;11.80;;
2720;SDS011;1368;49.484;11.112;2024-01-06T12:11:32;11.43;;;10.10;;
2720;SDS011;1368;49.484;11.112;2024-01-06T12:13:58;13.13;;;8.53;;
2720;SDS011;1368;49.484;11.112;2024-01-06T12:16:24;13.53;;;10.37;;
2720;SDS011;1368;49.484;11.112;2024-01-06T12:18:56;12.73;;;8.50;;
2720;SDS011;1368;49.484;11.112;2024-01-06T12:21:25;13.53;;;8.77;;
2720;SDS011;1368;49.484;11.112;2024-01-06T12:23:51;14.03;;;8.70;;
2720;SDS011;1368;49.484;11.112;2024-01-06T12:26:17;11.23;;;8.77;;
2720;SDS011;1368;49.484;11.112;2024-01-06T12:28:46;11.67;;;8.87;;
2720;SDS011;1368;49.484;11.112;2024-01-06T12:31:13;14.87;;;8.27;;
2720;SDS011;1368;49.484;11.112;2024-01-06T12:33:39;12.60;;;10.20;;
2720;SDS011;1368;49.484;11.112;2024-01-06T12:36:06;10.60;;;8.77;;
2720;SDS011;1368;49.484;11.112;2024-01-06T12:38:32;17.10;;;9.13;;
2720;SDS011;1368;49.484;11.112;2024-01-06T12:40:59;12.13;;;8.77;;
2720;SDS011;1368;49.484;11.112;2024-01-06T12:43:25;15.83;;;9.10;;
2720;SDS011;1368;49.484;11.112;2024-01-06T12:45:50;12.43;;;8.67;;
2720;SDS011;1368;49.484;11.112;2024-01-06T12:48:17;13.87;;;8.33;;
2720;SDS011;1368;49.484;11.112;2024-01-06T12:50:43;16.60;;;11.37;;
2720;SDS011;1368;49.484;11.112;2024-01-06T12:53:09;17.17;;;10.17;;
2720;SDS011;1368;49.484;11.112;2024-01-06T12:55:36;11.77;;;9.30;;
2720;SDS011;1368;49.484;11.112;2024-01-06T12:58:02;13.17;;;9.60;;
2720;SDS011;1368;49.484;11.112;2024-01-06T13:00:28;18.90;;;9.83;;
2720;SDS011;1368;49.484;11.112;2024-01-06T13:02:54;19.67;;;11.30;;
2720;SDS011;1368;49.484;11.112;2024-01-06T13:05:20;13.27;;;9.67;;
2720;SDS011;1368;49.484;11.112;2024-01-06T13:07:45;11.00;;;9.70;;
2720;SDS011;1368;49.484;11.112;2024-01-06T13:10:11;12.77;;;9.77;;
2720;SDS011;1368;49.484;11.112;2024-01-06T13:12:37;11.17;;;9.63;;
2720;SDS011;1368;49.484;11.112;2024-01-06T13:15:02;16.37;;;8.90;;
2720;SDS011;1368;49.484;11.112;2024-01-06T13:17:29;12.37;;;8.70;;
2720;SDS011;1368;49.484;11.112;2024-01-06T13:19:54;17.10;;;8.70;;
2720;SDS011;1368;49.484;11.112;2024-01-06T13:22:21;10.90;;;8.37;;
2720;SDS011;1368;49.484;11.112;2024-01-06T13:24:47;9.20;;;7.83;;
2720;SDS011;1368;49.484;11.112;2024-01-06T13:27:12;14.40;;;8.70;;
2720;SDS011;1368;49.484;11.112;2024-01-06T13:29:38;14.97;;;7.70;;
2720;SDS011;1368;49.484;11.112;2024-01-06T13:32:03;11.27;;;8.30;;
2720;SDS011;1368;49.484;11.112;2024-01-06T13:34:30;9.87;;;7.80;;
2720;SDS011;1368;49.484;11.112;2024-01-06T13:36:56;11.53;;;7.90;;
2720;SDS011;1368;49.484;11.112;2024-01-06T13:39:22;11.47;;;7.53;;
2720;SDS011;1368;49.484;11.112;2024-01-06T13:41:48;10.40;;;6.70;;
2720;SDS011;1368;49.484;11.112;2024-01-06T13:44:14;14.10;;;7.43;;
2720;SDS011;1368;49.484;11.112;2024-01-06T13:46:40;13.50;;;7.80;;
2720;SDS011;1368;49.484;11.112;2024-01-06T13:49:12;12.50;;;7.70;;
2720;SDS011;1368;49.484;11.112;2024-01-06T13:51:41;13.60;;;6.80;;
2720;SDS011;1368;49.484;11.112;2024-01-06T13:54:06;9.83;;;7.10;;
2720;SDS011;1368;49.484;11.112;2024-01-06T13:56:32;10.60;;;7.03;;
2720;SDS011;1368;49.484;11.112;2024-01-06T13:58:58;12.80;;;9.33;;
2720;SDS011;1368;49.484;11.112;2024-01-06T14:01:24;14.57;;;8.10;;
2720;SDS011;1368;49.484;11.112;2024-01-06T14:03:50;14.00;;;8.87;;
2720;SDS011;1368;49.484;11.112;2024-01-06T14:06:15;11.50;;;7.10;;
2720;SDS011;1368;49.484;11.112;2024-01-06T14:08:42;11.23;;;7.87;;
2720;SDS011;1368;49.484;11.112;2024-01-06T14:11:08;21.20;;;9.10;;
2720;SDS011;1368;49.484;11.112;2024-01-06T14:13:34;13.83;;;10.43;;
2720;SDS011;1368;49.484;11.112;2024-01-06T14:16:00;16.20;;;10.50;;
2720;SDS011;1368;49.484;11.112;2024-01-06T14:18:25;12.57;;;8.20;;
2720;SDS011;1368;49.484;11.112;2024-01-06T14:20:52;12.33;;;8.13;;
2720;SDS011;1368;49.484;11.112;2024-01-06T14:23:20;10.80;;;7.80;;
2720;SDS011;1368;49.484;11.112;2024-01-06T14:25:46;10.77;;;8.13;;
2720;SDS011;1368;49.484;11.112;2024-01-06T14:28:12;11.87;;;8.50;;
2720;SDS011;1368;49.484;11.112;2024-01-06T14:30:37;17.80;;;10.13;;